sensor_id;sensor_type;location;lat;lon;timestamp;pressure;altitude;pressure_sealevel;temperature;humidity
48630;BME280;34426;52.180;4.462;2023-02-28T00:01:44;103316.50;;;1.86;87.89
48630;BME280;34426;52.180;4.462;2023-02-28T00:04:11;103325.50;;;1.98;87.93
48630;BME280;34426;52.180;4.462;2023-02-28T00:06:36;103323.00;;;2.05;87.85
48630;BME280;34426;52.180;4.462;2023-02-28T00:09:02;103328.63;;;2.13;87.51
48630;BME280;34426;52.180;4.462;2023-02-28T00:11:27;103325.94;;;2.21;87.67
48630;BME280;34426;52.180;4.462;2023-02-28T00:13:53;103330.47;;;2.22;87.63
48630;BME280;34426;52.180;4.462;2023-02-28T00:16:20;103332.16;;;2.32;87.28
48630;BME280;34426;52.180;4.462;2023-02-28T00:18:46;103340.56;;;2.41;87.63
48630;BME280;34426;52.180;4.462;2023-02-28T00:21:13;103329.34;;;2.42;87.32
48630;BME280;34426;52.180;4.462;2023-02-28T00:23:38;103329.88;;;2.55;87.35
48630;BME280;34426;52.180;4.462;2023-02-28T00:26:04;103330.66;;;2.65;87.61
48630;BME280;34426;52.180;4.462;2023-02-28T00:28:30;103328.59;;;2.67;87.12
48630;BME280;34426;52.180;4.462;2023-02-28T00:30:55;103327.13;;;2.73;87.22
48630;BME280;34426;52.180;4.462;2023-02-28T00:33:21;103326.25;;;2.73;86.87
48630;BME280;34426;52.180;4.462;2023-02-28T00:35:46;103325.78;;;2.77;87.35
48630;BME280;34426;52.180;4.462;2023-02-28T00:38:13;103325.31;;;2.82;87.14
48630;BME280;34426;52.180;4.462;2023-02-28T00:40:39;103332.13;;;2.87;87.21
48630;BME280;34426;52.180;4.462;2023-02-28T00:43:04;103330.53;;;2.85;86.88
48630;BME280;34426;52.180;4.462;2023-02-28T00:45:30;103332.28;;;2.86;87.13
48630;BME280;34426;52.180;4.462;2023-02-28T00:47:55;103326.75;;;2.86;86.81
48630;BME280;34426;52.180;4.462;2023-02-28T00:50:21;103320.34;;;2.85;86.81
48630;BME280;34426;52.180;4.462;2023-02-28T00:52:47;103316.41;;;2.88;86.77
48630;BME280;34426;52.180;4.462;2023-02-28T00:55:14;103316.97;;;2.91;86.52
48630;BME280;34426;52.180;4.462;2023-02-28T00:57:40;103311.91;;;2.87;86.50
48630;BME280;34426;52.180;4.462;2023-02-28T01:00:06;103320.91;;;2.89;86.68
48630;BME280;34426;52.180;4.462;2023-02-28T01:02:32;103315.06;;;2.92;86.61
48630;BME280;34426;52.180;4.462;2023-02-28T01:04:58;103322.34;;;2.93;86.93
48630;BME280;34426;52.180;4.462;2023-02-28T01:07:23;103324.78;;;2.96;86.58
48630;BME280;34426;52.180;4.462;2023-02-28T01:09:49;103328.03;;;2.91;87.04
48630;BME280;34426;52.180;4.462;2023-02-28T01:12:16;103330.31;;;2.96;86.80
48630;BME280;34426;52.180;4.462;2023-02-28T01:14:42;103327.56;;;2.96;86.74
48630;BME280;34426;52.180;4.462;2023-02-28T01:17:08;103328.00;;;3.09;86.89
48630;BME280;34426;52.180;4.462;2023-02-28T01:19:34;103321.22;;;3.04;86.80
48630;BME280;34426;52.180;4.462;2023-02-28T01:22:03;103318.44;;;3.04;86.39
48630;BME280;34426;52.180;4.462;2023-02-28T01:24:28;103323.66;;;3.07;86.85
48630;BME280;34426;52.180;4.462;2023-02-28T01:26:54;103322.31;;;3.11;86.65
48630;BME280;34426;52.180;4.462;2023-02-28T01:29:21;103328.31;;;3.06;86.60
48630;BME280;34426;52.180;4.462;2023-02-28T01:31:46;103321.59;;;3.09;86.88
48630;BME280;34426;52.180;4.462;2023-02-28T01:34:12;103317.97;;;3.08;86.97
48630;BME280;34426;52.180;4.462;2023-02-28T01:36:37;103318.38;;;3.13;87.25
48630;BME280;34426;52.180;4.462;2023-02-28T01:39:03;103314.56;;;3.14;86.70
48630;BME280;34426;52.180;4.462;2023-02-28T01:41:32;103310.00;;;3.23;87.41
48630;BME280;34426;52.180;4.462;2023-02-28T01:44:01;103308.41;;;3.20;86.86
48630;BME280;34426;52.180;4.462;2023-02-28T01:46:28;103316.56;;;3.22;86.90
48630;BME280;34426;52.180;4.462;2023-02-28T01:49:00;103312.91;;;3.21;87.00
48630;BME280;34426;52.180;4.462;2023-02-28T01:51:33;103313.63;;;3.23;86.88
48630;BME280;34426;52.180;4.462;2023-02-28T01:54:02;103301.22;;;3.27;86.54
48630;BME280;34426;52.180;4.462;2023-02-28T01:56:33;103299.88;;;3.31;86.42
48630;BME280;34426;52.180;4.462;2023-02-28T01:59:02;103295.44;;;3.39;86.52
48630;BME280;34426;52.180;4.462;2023-02-28T02:01:30;103298.91;;;3.41;86.74
48630;BME280;34426;52.180;4.462;2023-02-28T02:03:58;103300.81;;;3.40;86.46
48630;BME280;34426;52.180;4.462;2023-02-28T02:06:29;103304.22;;;3.34;86.69
48630;BME280;34426;52.180;4.462;2023-02-28T02:08:55;103296.09;;;3.32;87.10
48630;BME280;34426;52.180;4.462;2023-02-28T02:11:23;103298.84;;;3.32;86.76
48630;BME280;34426;52.180;4.462;2023-02-28T02:16:55;103307.69;;;3.36;86.69
48630;BME280;34426;52.180;4.462;2023-02-28T02:19:59;103292.94;;;3.27;87.38
48630;BME280;34426;52.180;4.462;2023-02-28T02:25:39;103290.00;;;3.29;87.33
48630;BME280;34426;52.180;4.462;2023-02-28T02:28:44;103292.59;;;3.30;87.71
48630;BME280;34426;52.180;4.462;2023-02-28T02:31:29;103288.25;;;3.28;87.41
48630;BME280;34426;52.180;4.462;2023-02-28T02:34:24;103286.03;;;3.31;87.81
48630;BME280;34426;52.180;4.462;2023-02-28T02:37:00;103282.09;;;3.34;87.45
48630;BME280;34426;52.180;4.462;2023-02-28T02:39:32;103283.28;;;3.31;87.84
48630;BME280;34426;52.180;4.462;2023-02-28T02:42:08;103279.50;;;3.32;87.60
48630;BME280;34426;52.180;4.462;2023-02-28T02:44:40;103278.06;;;3.28;87.22
48630;BME280;34426;52.180;4.462;2023-02-28T02:47:10;103276.00;;;3.30;87.14
48630;BME280;34426;52.180;4.462;2023-02-28T02:49:42;103282.72;;;3.28;87.52
48630;BME280;34426;52.180;4.462;2023-02-28T02:52:11;103285.34;;;3.29;87.44
48630;BME280;34426;52.180;4.462;2023-02-28T02:54:41;103283.91;;;3.25;87.05
48630;BME280;34426;52.180;4.462;2023-02-28T02:57:13;103291.19;;;3.26;87.30
48630;BME280;34426;52.180;4.462;2023-02-28T02:59:41;103283.22;;;3.23;86.76
48630;BME280;34426;52.180;4.462;2023-02-28T03:02:11;103282.19;;;3.24;86.88
48630;BME280;34426;52.180;4.462;2023-02-28T03:04:43;103281.78;;;3.19;86.91
48630;BME280;34426;52.180;4.462;2023-02-28T03:07:10;103282.19;;;3.24;87.08
48630;BME280;34426;52.180;4.462;2023-02-28T03:09:36;103284.06;;;3.24;87.04
48630;BME280;34426;52.180;4.462;2023-02-28T03:12:01;103282.88;;;3.26;87.52
48630;BME280;34426;52.180;4.462;2023-02-28T03:14:46;103286.03;;;3.31;87.20
48630;BME280;34426;52.180;4.462;2023-02-28T03:17:29;103277.03;;;3.29;87.59
48630;BME280;34426;52.180;4.462;2023-02-28T03:20:03;103276.00;;;3.30;87.57
48630;BME280;34426;52.180;4.462;2023-02-28T03:22:45;103274.59;;;3.26;87.10
48630;BME280;34426;52.180;4.462;2023-02-28T03:25:15;103274.28;;;3.29;87.55
48630;BME280;34426;52.180;4.462;2023-02-28T03:27:48;103274.28;;;3.29;87.64
48630;BME280;34426;52.180;4.462;2023-02-28T03:30:23;103274.75;;;3.25;87.41
48630;BME280;34426;52.180;4.462;2023-02-28T03:32:54;103274.59;;;3.26;87.75
48630;BME280;34426;52.180;4.462;2023-02-28T03:35:23;103272.22;;;3.31;87.69
48630;BME280;34426;52.180;4.462;2023-02-28T03:37:53;103269.84;;;3.37;87.75
48630;BME280;34426;52.180;4.462;2023-02-28T03:40:22;103273.31;;;3.39;88.19
48630;BME280;34426;52.180;4.462;2023-02-28T03:42:54;103272.78;;;3.35;87.98
48630;BME280;34426;52.180;4.462;2023-02-28T03:45:23;103267.41;;;3.33;88.34
48630;BME280;34426;52.180;4.462;2023-02-28T03:47:52;103272.22;;;3.31;88.13
48630;BME280;34426;52.180;4.462;2023-02-28T03:50:22;103272.22;;;3.31;88.39
48630;BME280;34426;52.180;4.462;2023-02-28T03:52:51;103269.06;;;3.26;88.18
48630;BME280;34426;52.180;4.462;2023-02-28T03:55:19;103265.81;;;3.31;88.71
48630;BME280;34426;52.180;4.462;2023-02-28T03:57:53;103276.72;;;3.32;87.64
48630;BME280;34426;52.180;4.462;2023-02-28T04:00:27;103271.81;;;3.26;88.36
48630;BME280;34426;52.180;4.462;2023-02-28T04:02:55;103278.94;;;3.29;88.08
48630;BME280;34426;52.180;4.462;2023-02-28T04:05:22;103272.69;;;3.27;88.06
48630;BME280;34426;52.180;4.462;2023-02-28T04:07:48;103275.13;;;3.30;87.66
48630;BME280;34426;52.180;4.462;2023-02-28T04:10:14;103287.06;;;3.30;88.04
48630;BME280;34426;52.180;4.462;2023-02-28T04:12:40;103285.66;;;3.26;87.93
48630;BME280;34426;52.180;4.462;2023-02-28T04:15:07;103286.84;;;3.24;87.84
48630;BME280;34426;52.180;4.462;2023-02-28T04:17:33;103287.56;;;3.26;88.03
48630;BME280;34426;52.180;4.462;2023-02-28T04:19:58;103290.00;;;3.29;87.68
48630;BME280;34426;52.180;4.462;2023-02-28T04:22:25;103280.28;;;3.25;87.86
48630;BME280;34426;52.180;4.462;2023-02-28T04:24:51;103286.38;;;3.28;87.52
48630;BME280;34426;52.180;4.462;2023-02-28T04:27:16;103281.88;;;3.27;87.57
48630;BME280;34426;52.180;4.462;2023-02-28T04:29:42;103278.06;;;3.28;87.76
48630;BME280;34426;52.180;4.462;2023-02-28T04:32:07;103281.16;;;3.25;87.71
48630;BME280;34426;52.180;4.462;2023-02-28T04:34:33;103278.53;;;3.24;87.98
48630;BME280;34426;52.180;4.462;2023-02-28T04:36:58;103272.00;;;3.25;88.21
48630;BME280;34426;52.180;4.462;2023-02-28T04:39:25;103278.38;;;3.25;88.03
48630;BME280;34426;52.180;4.462;2023-02-28T04:41:51;103273.63;;;3.36;87.93
48630;BME280;34426;52.180;4.462;2023-02-28T04:44:17;103274.28;;;3.29;87.74
48630;BME280;34426;52.180;4.462;2023-02-28T04:46:43;103283.28;;;3.31;87.86
48630;BME280;34426;52.180;4.462;2023-02-28T04:49:10;103278.78;;;3.30;87.91
48630;BME280;34426;52.180;4.462;2023-02-28T04:51:36;103281.88;;;3.27;87.97
48630;BME280;34426;52.180;4.462;2023-02-28T04:54:02;103280.03;;;3.36;87.84
48630;BME280;34426;52.180;4.462;2023-02-28T04:56:29;103284.38;;;3.39;87.45
48630;BME280;34426;52.180;4.462;2023-02-28T04:58:54;103284.00;;;3.33;87.68
48630;BME280;34426;52.180;4.462;2023-02-28T05:01:22;103271.03;;;3.34;87.90
48630;BME280;34426;52.180;4.462;2023-02-28T05:03:49;103282.97;;;3.34;87.48
48630;BME280;34426;52.180;4.462;2023-02-28T05:06:15;103276.09;;;3.39;87.73
48630;BME280;34426;52.180;4.462;2023-02-28T05:08:41;103283.84;;;3.35;87.80
48630;BME280;34426;52.180;4.462;2023-02-28T05:11:13;103281.53;;;3.30;87.77
48630;BME280;34426;52.180;4.462;2023-02-28T05:13:40;103276.88;;;3.31;87.22
48630;BME280;34426;52.180;4.462;2023-02-28T05:16:06;103283.59;;;3.28;87.86
48630;BME280;34426;52.180;4.462;2023-02-28T05:18:32;103282.09;;;3.34;87.62
48630;BME280;34426;52.180;4.462;2023-02-28T05:20:57;103278.47;;;3.33;87.65
48630;BME280;34426;52.180;4.462;2023-02-28T05:23:23;103277.09;;;3.38;87.55
48630;BME280;34426;52.180;4.462;2023-02-28T05:25:48;103282.63;;;3.38;87.38
48630;BME280;34426;52.180;4.462;2023-02-28T05:28:14;103278.84;;;3.39;87.21
48630;BME280;34426;52.180;4.462;2023-02-28T05:30:41;103283.03;;;3.43;87.54
48630;BME280;34426;52.180;4.462;2023-02-28T05:33:06;103277.09;;;3.38;87.19
48630;BME280;34426;52.180;4.462;2023-02-28T05:35:32;103282.31;;;3.41;86.99
48630;BME280;34426;52.180;4.462;2023-02-28T05:37:57;103291.50;;;3.41;86.12
48630;BME280;34426;52.180;4.462;2023-02-28T05:40:23;103280.03;;;3.36;85.34
48630;BME280;34426;52.180;4.462;2023-02-28T05:42:50;103280.25;;;3.43;85.91
48630;BME280;34426;52.180;4.462;2023-02-28T05:45:16;103279.94;;;3.46;84.93
48630;BME280;34426;52.180;4.462;2023-02-28T05:47:43;103282.00;;;3.44;85.11
48630;BME280;34426;52.180;4.462;2023-02-28T05:50:09;103277.81;;;3.40;84.18
48630;BME280;34426;52.180;4.462;2023-02-28T05:52:35;103288.56;;;3.43;84.72
48630;BME280;34426;52.180;4.462;2023-02-28T05:55:00;103283.34;;;3.40;84.75
48630;BME280;34426;52.180;4.462;2023-02-28T05:57:25;103275.38;;;3.37;83.95
48630;BME280;34426;52.180;4.462;2023-02-28T05:59:51;103284.38;;;3.39;83.51
48630;BME280;34426;52.180;4.462;2023-02-28T06:02:17;103288.19;;;3.38;83.34
48630;BME280;34426;52.180;4.462;2023-02-28T06:04:44;103290.78;;;3.39;83.36
48630;BME280;34426;52.180;4.462;2023-02-28T06:07:10;103293.38;;;3.41;83.37
48630;BME280;34426;52.180;4.462;2023-02-28T06:09:37;103293.22;;;3.42;83.27
48630;BME280;34426;52.180;4.462;2023-02-28T06:12:05;103287.84;;;3.41;82.14
48630;BME280;34426;52.180;4.462;2023-02-28T06:14:31;103287.84;;;3.41;82.16
48630;BME280;34426;52.180;4.462;2023-02-28T06:16:57;103293.72;;;3.38;82.23
48630;BME280;34426;52.180;4.462;2023-02-28T06:19:23;103283.75;;;3.45;82.53
48630;BME280;34426;52.180;4.462;2023-02-28T06:21:51;103296.53;;;3.46;81.92
48630;BME280;34426;52.180;4.462;2023-02-28T06:24:17;103294.44;;;3.48;82.50
48630;BME280;34426;52.180;4.462;2023-02-28T06:26:42;103284.38;;;3.39;82.21
48630;BME280;34426;52.180;4.462;2023-02-28T06:29:08;103286.13;;;3.40;81.54
48630;BME280;34426;52.180;4.462;2023-02-28T06:31:33;103291.97;;;3.37;81.87
48630;BME280;34426;52.180;4.462;2023-02-28T06:33:59;103288.56;;;3.43;82.00
48630;BME280;34426;52.180;4.462;2023-02-28T06:36:24;103287.84;;;3.41;82.57
48630;BME280;34426;52.180;4.462;2023-02-28T06:38:51;103289.34;;;3.35;82.58
48630;BME280;34426;52.180;4.462;2023-02-28T06:41:17;103287.00;;;3.40;81.87
48630;BME280;34426;52.180;4.462;2023-02-28T06:43:43;103284.63;;;3.27;82.44
48630;BME280;34426;52.180;4.462;2023-02-28T06:46:12;103295.28;;;3.40;82.37
48630;BME280;34426;52.180;4.462;2023-02-28T06:48:38;103292.44;;;3.32;82.19
48630;BME280;34426;52.180;4.462;2023-02-28T06:51:07;103293.25;;;3.24;81.75
48630;BME280;34426;52.180;4.462;2023-02-28T06:53:33;103295.28;;;3.22;82.42
48630;BME280;34426;52.180;4.462;2023-02-28T06:56:03;103307.78;;;3.26;82.49
48630;BME280;34426;52.180;4.462;2023-02-28T06:58:29;103301.78;;;3.31;82.76
48630;BME280;34426;52.180;4.462;2023-02-28T07:00:54;103303.34;;;3.33;82.88
48630;BME280;34426;52.180;4.462;2023-02-28T07:03:20;103308.56;;;3.37;83.30
48630;BME280;34426;52.180;4.462;2023-02-28T07:05:48;103303.91;;;3.37;83.33
48630;BME280;34426;52.180;4.462;2023-02-28T07:08:13;103317.03;;;3.35;84.00
48630;BME280;34426;52.180;4.462;2023-02-28T07:10:40;103317.19;;;3.33;84.30
48630;BME280;34426;52.180;4.462;2023-02-28T07:13:08;103313.00;;;3.29;84.42
48630;BME280;34426;52.180;4.462;2023-02-28T07:15:33;103322.56;;;3.17;85.01
48630;BME280;34426;52.180;4.462;2023-02-28T07:17:59;103325.31;;;3.17;85.32
48630;BME280;34426;52.180;4.462;2023-02-28T07:20:24;103325.06;;;3.11;85.95
48630;BME280;34426;52.180;4.462;2023-02-28T07:22:52;103328.66;;;3.03;86.10
48630;BME280;34426;52.180;4.462;2023-02-28T07:25:18;103328.97;;;3.00;86.38
48630;BME280;34426;52.180;4.462;2023-02-28T07:27:43;103332.91;;;2.97;86.41
48630;BME280;34426;52.180;4.462;2023-02-28T07:30:14;103341.59;;;2.85;85.27
48630;BME280;34426;52.180;4.462;2023-02-28T07:32:39;103339.34;;;2.71;84.93
48630;BME280;34426;52.180;4.462;2023-02-28T07:35:05;103344.41;;;2.57;85.12
48630;BME280;34426;52.180;4.462;2023-02-28T07:37:31;103339.19;;;2.54;85.09
48630;BME280;34426;52.180;4.462;2023-02-28T07:39:56;103342.00;;;2.45;84.76
48630;BME280;34426;52.180;4.462;2023-02-28T07:42:22;103343.91;;;2.34;85.40
48630;BME280;34426;52.180;4.462;2023-02-28T07:44:48;103340.75;;;2.29;85.57
48630;BME280;34426;52.180;4.462;2023-02-28T07:47:14;103337.41;;;2.26;85.67
48630;BME280;34426;52.180;4.462;2023-02-28T07:49:40;103342.06;;;2.25;85.96
48630;BME280;34426;52.180;4.462;2023-02-28T07:52:06;103347.03;;;2.22;85.87
48630;BME280;34426;52.180;4.462;2023-02-28T07:54:32;103347.44;;;2.27;86.05
48630;BME280;34426;52.180;4.462;2023-02-28T07:56:58;103343.66;;;2.28;86.17
48630;BME280;34426;52.180;4.462;2023-02-28T07:59:23;103347.44;;;2.27;86.22
48630;BME280;34426;52.180;4.462;2023-02-28T08:01:49;103345.41;;;2.29;86.53
48630;BME280;34426;52.180;4.462;2023-02-28T08:04:16;103339.16;;;2.27;86.61
48630;BME280;34426;52.180;4.462;2023-02-28T08:06:41;103339.56;;;2.32;86.53
48630;BME280;34426;52.180;4.462;2023-02-28T08:09:07;103344.22;;;2.31;86.60
48630;BME280;34426;52.180;4.462;2023-02-28T08:11:32;103356.44;;;2.29;86.69
48630;BME280;34426;52.180;4.462;2023-02-28T08:13:58;103355.56;;;2.28;86.73
48630;BME280;34426;52.180;4.462;2023-02-28T08:16:23;103352.34;;;2.33;87.30
48630;BME280;34426;52.180;4.462;2023-02-28T08:18:49;103356.13;;;2.32;87.03
48630;BME280;34426;52.180;4.462;2023-02-28T08:21:16;103354.25;;;2.32;87.12
48630;BME280;34426;52.180;4.462;2023-02-28T08:23:42;103363.09;;;2.36;87.62
48630;BME280;34426;52.180;4.462;2023-02-28T08:26:07;103354.50;;;2.39;87.23
48630;BME280;34426;52.180;4.462;2023-02-28T08:28:33;103350.44;;;2.43;87.33
48630;BME280;34426;52.180;4.462;2023-02-28T08:30:58;103350.28;;;2.45;87.29
48630;BME280;34426;52.180;4.462;2023-02-28T08:33:25;103359.59;;;2.44;87.67
48630;BME280;34426;52.180;4.462;2023-02-28T08:35:53;103358.41;;;2.46;88.09
48630;BME280;34426;52.180;4.462;2023-02-28T08:38:20;103355.53;;;2.38;88.24
48630;BME280;34426;52.180;4.462;2023-02-28T08:40:45;103350.31;;;2.35;88.60
48630;BME280;34426;52.180;4.462;2023-02-28T08:43:11;103350.63;;;2.32;88.69
48630;BME280;34426;52.180;4.462;2023-02-28T08:45:37;103349.06;;;2.20;88.28
48630;BME280;34426;52.180;4.462;2023-02-28T08:48:02;103348.16;;;2.29;89.31
48630;BME280;34426;52.180;4.462;2023-02-28T08:50:28;103344.06;;;2.33;89.44
48630;BME280;34426;52.180;4.462;2023-02-28T08:52:53;103341.00;;;2.36;89.46
48630;BME280;34426;52.180;4.462;2023-02-28T08:55:20;103347.66;;;2.43;89.92
48630;BME280;34426;52.180;4.462;2023-02-28T08:57:46;103354.94;;;2.44;89.90
48630;BME280;34426;52.180;4.462;2023-02-28T09:00:20;103351.44;;;2.42;89.65
48630;BME280;34426;52.180;4.462;2023-02-28T09:02:45;103349.41;;;2.44;90.15
48630;BME280;34426;52.180;4.462;2023-02-28T09:05:11;103337.91;;;2.49;89.58
48630;BME280;34426;52.180;4.462;2023-02-28T09:07:37;103341.22;;;2.52;89.86
48630;BME280;34426;52.180;4.462;2023-02-28T09:10:03;103346.81;;;2.60;90.28
48630;BME280;34426;52.180;4.462;2023-02-28T09:12:33;103349.91;;;2.57;89.95
48630;BME280;34426;52.180;4.462;2023-02-28T09:14:58;103356.06;;;2.51;89.91
48630;BME280;34426;52.180;4.462;2023-02-28T09:17:24;103349.50;;;2.52;89.75
48630;BME280;34426;52.180;4.462;2023-02-28T09:19:49;103343.28;;;2.50;90.39
48630;BME280;34426;52.180;4.462;2023-02-28T09:22:15;103334.59;;;2.63;90.31
48630;BME280;34426;52.180;4.462;2023-02-28T09:24:44;103341.69;;;2.65;90.44
48630;BME280;34426;52.180;4.462;2023-02-28T09:27:09;103348.44;;;2.81;90.43
48630;BME280;34426;52.180;4.462;2023-02-28T09:29:36;103334.94;;;2.78;89.27
48630;BME280;34426;52.180;4.462;2023-02-28T09:32:03;103336.69;;;2.79;89.79
48630;BME280;34426;52.180;4.462;2023-02-28T09:34:29;103336.16;;;2.93;89.72
48630;BME280;34426;52.180;4.462;2023-02-28T09:36:54;103337.97;;;3.02;89.62
48630;BME280;34426;52.180;4.462;2023-02-28T09:39:22;103335.28;;;3.10;89.45
48630;BME280;34426;52.180;4.462;2023-02-28T09:41:50;103342.53;;;3.11;88.01
48630;BME280;34426;52.180;4.462;2023-02-28T09:44:23;103357.56;;;3.26;89.19
48630;BME280;34426;52.180;4.462;2023-02-28T09:46:57;103354.72;;;3.18;87.93
48630;BME280;34426;52.180;4.462;2023-02-28T09:49:30;103347.28;;;3.37;88.23
48630;BME280;34426;52.180;4.462;2023-02-28T09:52:00;103351.09;;;3.36;86.37
48630;BME280;34426;52.180;4.462;2023-02-28T09:54:28;103346.97;;;3.40;86.16
48630;BME280;34426;52.180;4.462;2023-02-28T09:56:58;103350.81;;;3.47;87.03
48630;BME280;34426;52.180;4.462;2023-02-28T09:59:39;103351.53;;;3.49;86.84
48630;BME280;34426;52.180;4.462;2023-02-28T10:02:21;103346.22;;;3.55;86.21
48630;BME280;34426;52.180;4.462;2023-02-28T10:04:53;103347.31;;;3.62;85.26
48630;BME280;34426;52.180;4.462;2023-02-28T10:07:31;103346.91;;;3.75;86.14
48630;BME280;34426;52.180;4.462;2023-02-28T10:10:07;103347.53;;;3.69;83.69
48630;BME280;34426;52.180;4.462;2023-02-28T10:12:42;103357.81;;;3.77;84.56
48630;BME280;34426;52.180;4.462;2023-02-28T10:15:13;103347.94;;;3.74;81.39
48630;BME280;34426;52.180;4.462;2023-02-28T10:17:43;103356.56;;;3.71;81.67
48630;BME280;34426;52.180;4.462;2023-02-28T10:20:12;103351.19;;;3.52;81.05
48630;BME280;34426;52.180;4.462;2023-02-28T10:22:48;103351.03;;;3.71;82.58
48630;BME280;34426;52.180;4.462;2023-02-28T10:25:18;103349.59;;;3.67;80.95
48630;BME280;34426;52.180;4.462;2023-02-28T10:27:44;103350.69;;;3.74;79.75
48630;BME280;34426;52.180;4.462;2023-02-28T10:30:11;103358.63;;;3.95;80.49
48630;BME280;34426;52.180;4.462;2023-02-28T10:32:38;103359.38;;;4.05;79.13
48630;BME280;34426;52.180;4.462;2023-02-28T10:35:15;103343.97;;;4.03;76.73
48630;BME280;34426;52.180;4.462;2023-02-28T10:37:42;103349.28;;;4.22;77.08
48630;BME280;34426;52.180;4.462;2023-02-28T10:40:29;103356.56;;;4.23;76.18
48630;BME280;34426;52.180;4.462;2023-02-28T10:42:55;103354.50;;;4.25;75.65
48630;BME280;34426;52.180;4.462;2023-02-28T10:45:25;103361.56;;;4.19;75.29
48630;BME280;34426;52.180;4.462;2023-02-28T10:47:53;103364.16;;;4.21;74.66
48630;BME280;34426;52.180;4.462;2023-02-28T10:50:31;103361.97;;;4.32;73.65
48630;BME280;34426;52.180;4.462;2023-02-28T10:55:56;103346.91;;;4.35;73.26
48630;BME280;34426;52.180;4.462;2023-02-28T10:58:23;103344.81;;;4.37;70.75
48630;BME280;34426;52.180;4.462;2023-02-28T11:00:49;103342.06;;;4.37;70.46
48630;BME280;34426;52.180;4.462;2023-02-28T11:03:24;103342.06;;;4.37;70.03
48630;BME280;34426;52.180;4.462;2023-02-28T11:05:52;103341.72;;;4.40;68.71
48630;BME280;34426;52.180;4.462;2023-02-28T11:08:18;103342.00;;;4.21;67.20
48630;BME280;34426;52.180;4.462;2023-02-28T11:10:46;103338.41;;;4.37;66.97
48630;BME280;34426;52.180;4.462;2023-02-28T11:13:17;103335.91;;;4.51;66.35
48630;BME280;34426;52.180;4.462;2023-02-28T11:15:50;103343.63;;;4.74;66.49
48630;BME280;34426;52.180;4.462;2023-02-28T11:18:23;103339.19;;;5.13;64.82
48630;BME280;34426;52.180;4.462;2023-02-28T11:20:52;103332.97;;;5.44;64.95
48630;BME280;34426;52.180;4.462;2023-02-28T11:23:20;103332.28;;;5.42;63.70
48630;BME280;34426;52.180;4.462;2023-02-28T11:25:48;103322.03;;;5.34;64.89
48630;BME280;34426;52.180;4.462;2023-02-28T11:28:27;103329.81;;;5.30;63.74
48630;BME280;34426;52.180;4.462;2023-02-28T11:31:01;103333.31;;;5.49;63.46
48630;BME280;34426;52.180;4.462;2023-02-28T11:33:28;103322.00;;;5.75;62.55
48630;BME280;34426;52.180;4.462;2023-02-28T11:35:58;103312.44;;;6.02;62.35
48630;BME280;34426;52.180;4.462;2023-02-28T11:38:25;103311.66;;;6.24;60.65
48630;BME280;34426;52.180;4.462;2023-02-28T11:41:05;103309.75;;;6.63;60.48
48630;BME280;34426;52.180;4.462;2023-02-28T11:43:44;103322.94;;;6.70;59.13
48630;BME280;34426;52.180;4.462;2023-02-28T11:46:21;103312.81;;;6.77;55.89
48630;BME280;34426;52.180;4.462;2023-02-28T11:48:55;103305.97;;;6.56;57.09
48630;BME280;34426;52.180;4.462;2023-02-28T11:51:28;103305.94;;;6.64;58.28
48630;BME280;34426;52.180;4.462;2023-02-28T11:54:17;103305.94;;;6.64;55.61
48630;BME280;34426;52.180;4.462;2023-02-28T11:56:52;103305.53;;;6.76;56.25
48630;BME280;34426;52.180;4.462;2023-02-28T11:59:35;103306.63;;;6.66;56.58
48630;BME280;34426;52.180;4.462;2023-02-28T12:02:20;103297.28;;;6.90;56.31
48630;BME280;34426;52.180;4.462;2023-02-28T12:04:54;103299.38;;;6.88;56.51
48630;BME280;34426;52.180;4.462;2023-02-28T12:07:32;103293.91;;;6.95;55.27
48630;BME280;34426;52.180;4.462;2023-02-28T12:10:06;103292.31;;;7.00;56.61
48630;BME280;34426;52.180;4.462;2023-02-28T12:12:45;103284.16;;;6.99;55.37
48630;BME280;34426;52.180;4.462;2023-02-28T12:15:24;103292.63;;;7.06;55.79
48630;BME280;34426;52.180;4.462;2023-02-28T12:18:02;103289.72;;;6.99;54.76
48630;BME280;34426;52.180;4.462;2023-02-28T12:20:35;103288.59;;;6.85;56.19
48630;BME280;34426;52.180;4.462;2023-02-28T12:23:25;103291.94;;;6.81;53.05
48630;BME280;34426;52.180;4.462;2023-02-28T12:26:07;103281.91;;;6.94;53.30
48630;BME280;34426;52.180;4.462;2023-02-28T12:28:42;103285.66;;;6.87;54.92
48630;BME280;34426;52.180;4.462;2023-02-28T12:31:11;103273.50;;;6.80;53.58
48630;BME280;34426;52.180;4.462;2023-02-28T12:33:43;103268.81;;;6.80;55.96
48630;BME280;34426;52.180;4.462;2023-02-28T12:36:11;103276.25;;;6.88;54.04
48630;BME280;34426;52.180;4.462;2023-02-28T12:38:43;103267.50;;;6.68;53.07
48630;BME280;34426;52.180;4.462;2023-02-28T12:41:12;103272.28;;;6.51;54.26
48630;BME280;34426;52.180;4.462;2023-02-28T12:43:43;103267.16;;;6.40;54.82
48630;BME280;34426;52.180;4.462;2023-02-28T12:46:12;103264.44;;;6.24;54.27
48630;BME280;34426;52.180;4.462;2023-02-28T12:48:42;103263.13;;;6.43;50.97
48630;BME280;34426;52.180;4.462;2023-02-28T12:51:09;103263.47;;;6.48;50.16
48630;BME280;34426;52.180;4.462;2023-02-28T12:53:52;103264.91;;;6.66;51.83
48630;BME280;34426;52.180;4.462;2023-02-28T12:56:28;103257.06;;;6.70;49.90
48630;BME280;34426;52.180;4.462;2023-02-28T12:58:58;103262.03;;;6.83;49.04
48630;BME280;34426;52.180;4.462;2023-02-28T13:01:48;103255.59;;;6.82;49.57
48630;BME280;34426;52.180;4.462;2023-02-28T13:07:51;103248.53;;;7.17;50.12
48630;BME280;34426;52.180;4.462;2023-02-28T13:10:19;103243.47;;;7.21;51.12
48630;BME280;34426;52.180;4.462;2023-02-28T13:12:49;103245.88;;;7.39;48.96
48630;BME280;34426;52.180;4.462;2023-02-28T13:15:19;103243.94;;;7.91;48.97
48630;BME280;34426;52.180;4.462;2023-02-28T13:17:48;103239.06;;;8.23;47.07
48630;BME280;34426;52.180;4.462;2023-02-28T13:20:18;103240.28;;;8.50;48.34
48630;BME280;34426;52.180;4.462;2023-02-28T13:22:45;103244.09;;;8.63;47.15